Time;durP1;ratioP1;P1;durP2;ratioP2;P2;SDS_P1;SDS_P2;PMS_P1;PMS_P2;Temp;Humidity;BMP_temperature;BMP_pressure;BME280_temperature;BME280_humidity;BME280_pressure;Samples;Min_cycle;Max_cycle;Signal;HPM_P1;HPM_P2
2022/05/23 00:02:12;;;;;;;2.30;1.70;;;;;;;26.32;52.10;98274.69;5074693;28;20048;-74
2022/05/23 00:04:39;;;;;;;2.97;1.77;;;;;;;26.30;52.44;98277.94;5072153;28;20098;-71
2022/05/23 00:07:12;;;;;;;2.47;1.70;;;;;;;26.30;52.35;98279.97;5072101;28;20424;-71
2022/05/23 00:09:37;;;;;;;2.95;1.85;;;;;;;26.28;52.03;98271.19;5071862;28;20708;-70
2022/05/23 00:12:04;;;;;;;2.60;1.77;;;;;;;26.30;52.17;98271.56;5072081;28;20095;-70
2022/05/23 00:14:30;;;;;;;2.55;1.67;;;;;;;26.32;52.15;98278.28;5072004;28;20130;-71
2022/05/23 00:16:55;;;;;;;3.50;2.08;;;;;;;26.32;52.16;98283.09;5071669;28;20300;-71
2022/05/23 00:19:22;;;;;;;2.35;1.70;;;;;;;26.30;52.34;98291.97;5071730;28;20417;-70
2022/05/23 00:21:48;;;;;;;2.40;1.70;;;;;;;26.29;52.47;98284.78;5071705;28;20053;-71
2022/05/23 00:24:15;;;;;;;2.42;1.65;;;;;;;26.28;52.23;98279.59;5071759;28;20043;-73
2022/05/23 00:26:42;;;;;;;2.90;1.90;;;;;;;26.28;52.35;98274.00;5071694;28;20458;-73
2022/05/23 00:29:08;;;;;;;2.30;1.63;;;;;;;26.29;51.96;98286.78;5071453;28;20499;-74
2022/05/23 00:31:33;;;;;;;2.42;1.70;;;;;;;26.27;51.79;98287.22;5053524;28;20041;-74
2022/05/23 00:36:43;;;;;;;2.17;1.50;;;;;;;26.29;51.95;98295.19;5071200;28;20090;-73
2022/05/23 00:39:09;;;;;;;2.70;1.80;;;;;;;26.26;52.32;98280.03;5071388;28;20037;-74
2022/05/23 00:44:31;;;;;;;2.25;1.63;;;;;;;26.28;52.03;98294.41;5071772;28;20110;-73
2022/05/23 00:46:59;;;;;;;2.40;1.67;;;;;;;26.26;51.97;98296.88;5071600;28;20121;-73
2022/05/23 00:49:36;;;;;;;2.45;1.73;;;;;;;26.27;52.05;98298.44;5071415;28;20052;-74
2022/05/23 00:52:05;;;;;;;3.30;2.00;;;;;;;26.28;52.16;98290.81;5071562;28;20044;-74
2022/05/23 00:54:38;;;;;;;3.20;1.80;;;;;;;26.27;51.96;98287.22;5071568;28;20424;-74
2022/05/23 00:57:08;;;;;;;2.63;1.80;;;;;;;26.26;52.05;98285.66;5071247;28;20045;-74
2022/05/23 00:59:34;;;;;;;2.20;1.50;;;;;;;26.25;52.06;98275.66;5051511;28;20411;-73
2022/05/23 01:02:04;;;;;;;2.55;1.65;;;;;;;26.26;52.07;98282.84;5071298;28;20128;-74
2022/05/23 01:04:32;;;;;;;2.75;1.60;;;;;;;26.23;52.26;98272.53;5071357;28;20048;-74
2022/05/23 01:06:57;;;;;;;2.80;1.90;;;;;;;26.24;52.26;98274.09;5071227;28;20051;-74
2022/05/23 01:09:26;;;;;;;2.47;1.85;;;;;;;26.23;52.42;98277.34;5070682;28;20242;-71
2022/05/23 01:11:53;;;;;;;2.22;1.60;;;;;;;26.21;52.69;98277.75;5071078;28;20052;-70
2022/05/23 01:14:20;;;;;;;2.42;1.80;;;;;;;26.22;52.35;98282.16;5071113;28;20049;-70
2022/05/23 01:16:46;;;;;;;2.70;2.00;;;;;;;26.22;52.32;98290.56;5052537;28;20091;-70
2022/05/23 01:19:11;;;;;;;2.58;1.73;;;;;;;26.21;52.50;98280.56;5070628;28;20040;-71
2022/05/23 01:21:57;;;;;;;2.80;1.88;;;;;;;26.21;52.65;98271.38;5070897;28;20515;-70
2022/05/23 01:24:32;;;;;;;2.75;1.95;;;;;;;26.20;52.52;98269.78;5071046;28;20489;-71
2022/05/23 01:26:59;;;;;;;2.30;1.80;;;;;;;26.20;52.46;98281.00;5071058;28;20051;-71
2022/05/23 01:29:25;;;;;;;2.50;1.70;;;;;;;26.18;52.80;98281.47;5052751;28;20040;-70
2022/05/23 01:31:50;;;;;;;2.40;2.00;;;;;;;26.20;52.46;98286.63;5070410;28;20041;-70
2022/05/23 01:34:15;;;;;;;2.97;1.95;;;;;;;26.19;52.53;98276.63;5070594;28;20037;-71
2022/05/23 01:36:41;;;;;;;2.28;1.73;;;;;;;26.20;52.80;98270.59;5070295;28;20048;-71
2022/05/23 01:39:06;;;;;;;2.60;1.80;;;;;;;26.19;52.59;98263.41;5070407;28;20102;-70
2022/05/23 01:41:32;;;;;;;2.28;1.58;;;;;;;26.18;52.33;98255.44;5070629;28;20045;-71
2022/05/23 01:43:57;;;;;;;2.15;1.65;;;;;;;26.17;52.55;98257.47;5070567;28;20047;-71
2022/05/23 01:46:23;;;;;;;2.50;1.75;;;;;;;26.18;52.72;98250.63;5069793;28;20098;-71
2022/05/23 01:48:49;;;;;;;2.20;1.67;;;;;;;26.17;52.72;98254.66;5070231;28;20040;-70
2022/05/23 01:51:14;;;;;;;3.00;1.90;;;;;;;26.17;52.64;98257.47;5070370;28;20393;-70
2022/05/23 01:53:41;;;;;;;2.47;1.73;;;;;;;26.17;52.74;98265.88;5070444;28;20043;-71
2022/05/23 01:56:07;;;;;;;2.80;2.10;;;;;;;26.17;52.51;98256.69;5070252;28;20045;-70
2022/05/23 02:01:18;;;;;;;2.58;1.90;;;;;;;26.16;52.43;98247.47;5028805;28;20083;-70
2022/05/23 02:03:46;;;;;;;2.70;1.85;;;;;;;26.16;52.90;98241.88;5070192;28;20068;-70
2022/05/23 02:06:12;;;;;;;2.70;1.70;;;;;;;26.16;52.80;98253.09;5070215;28;20044;-70
2022/05/23 02:08:38;;;;;;;2.47;1.70;;;;;;;26.16;52.54;98249.50;5067997;28;20051;-71
2022/05/23 02:11:08;;;;;;;2.70;1.70;;;;;;;26.15;53.00;98240.31;5070039;28;20110;-71
2022/05/23 02:13:37;;;;;;;2.30;1.70;;;;;;;26.12;52.84;98232.75;5069929;28;20052;-70
2022/05/23 02:16:03;;;;;;;2.55;1.77;;;;;;;26.14;52.58;98237.91;5069936;28;20401;-70
2022/05/23 02:18:29;;;;;;;2.47;1.88;;;;;;;26.12;52.88;98240.38;5069479;28;20041;-70
2022/05/23 02:20:55;;;;;;;2.50;1.80;;;;;;;26.11;52.71;98239.59;5070091;28;20124;-70
2022/05/23 02:23:20;;;;;;;2.88;2.10;;;;;;;26.10;52.44;98234.44;5070177;28;20499;-70
2022/05/23 02:25:46;;;;;;;2.53;1.73;;;;;;;26.12;52.40;98241.16;5070036;28;20052;-71
2022/05/23 02:28:12;;;;;;;2.55;1.70;;;;;;;26.09;52.46;98244.88;5069821;28;20037;-71
2022/05/23 02:30:38;;;;;;;3.05;1.98;;;;;;;26.11;52.47;98241.63;5069855;28;20041;-70
2022/05/23 02:33:03;;;;;;;3.10;2.08;;;;;;;26.10;52.53;98235.22;5069825;28;20139;-70
2022/05/23 02:35:29;;;;;;;2.80;1.88;;;;;;;26.13;52.59;98222.34;5051736;28;20127;-71
2022/05/23 02:37:55;;;;;;;2.20;1.60;;;;;;;26.10;52.34;98215.59;5069259;28;20489;-70
2022/05/23 02:40:20;;;;;;;2.60;1.77;;;;;;;26.10;52.29;98215.59;5051492;28;20079;-71
2022/05/23 02:42:46;;;;;;;2.50;1.83;;;;;;;26.08;52.55;98209.66;5069792;28;20044;-71
2022/05/23 02:45:11;;;;;;;2.30;1.63;;;;;;;26.11;52.82;98200.38;5069602;28;20053;-70
2022/05/23 02:47:37;;;;;;;2.40;1.63;;;;;;;26.09;52.51;98225.25;5069672;28;20052;-70
2022/05/23 02:50:03;;;;;;;2.60;1.70;;;;;;;26.11;52.83;98250.81;5069234;28;20045;-70
2022/05/23 02:52:29;;;;;;;2.72;2.00;;;;;;;26.11;52.42;98239.59;5051416;28;20048;-71
2022/05/23 02:54:55;;;;;;;2.60;1.95;;;;;;;26.09;52.60;98219.63;5069587;28;20045;-71
2022/05/23 02:57:20;;;;;;;2.10;1.70;;;;;;;26.12;52.67;98210.34;5069188;28;20041;-71
2022/05/23 02:59:45;;;;;;;2.30;1.70;;;;;;;26.09;52.88;98208.44;5069455;28;20049;-71
2022/05/23 03:04:55;;;;;;;2.78;1.80;;;;;;;26.09;52.53;98219.63;5069683;28;20502;-71
2022/05/23 03:07:20;;;;;;;2.97;2.03;;;;;;;26.06;52.61;98221.28;5051604;28;20508;-70
2022/05/23 03:09:45;;;;;;;2.60;2.08;;;;;;;26.08;52.98;98234.88;5069051;28;20462;-71
2022/05/23 03:12:12;;;;;;;2.72;1.80;;;;;;;26.04;52.99;98234.97;5069366;28;20603;-70
2022/05/23 03:14:37;;;;;;;2.90;2.10;;;;;;;26.06;52.73;98228.91;5069359;28;20045;-70
2022/05/23 03:17:05;;;;;;;2.50;1.83;;;;;;;26.05;53.18;98225.31;5069080;28;20049;-70
2022/05/23 03:19:31;;;;;;;2.50;1.85;;;;;;;26.06;53.00;98223.31;5050891;28;20052;-71
2022/05/23 03:27:25;;;;;;;2.42;1.83;;;;;;;26.06;53.03;98221.28;5069317;28;20504;-70
2022/05/23 03:29:51;;;;;;;2.55;1.80;;;;;;;26.07;52.98;98219.28;5068815;28;20060;-73
2022/05/23 03:32:17;;;;;;;2.60;2.10;;;;;;;26.06;53.02;98218.47;5068853;28;20052;-73
2022/05/23 03:34:42;;;;;;;2.55;1.90;;;;;;;26.07;52.91;98216.47;5069025;28;20060;-74
2022/05/23 03:37:07;;;;;;;2.67;1.85;;;;;;;26.06;53.00;98221.28;5068618;28;20442;-73
2022/05/23 03:39:33;;;;;;;2.17;1.73;;;;;;;26.02;52.76;98229.00;5068570;28;20044;-73
2022/05/23 03:41:59;;;;;;;2.17;1.70;;;;;;;26.06;52.74;98237.31;5068912;28;20405;-74
2022/05/23 03:44:25;;;;;;;2.20;1.75;;;;;;;26.06;52.82;98234.50;5068941;28;20049;-74
2022/05/23 03:46:50;;;;;;;2.70;1.90;;;;;;;26.06;53.18;98237.31;5068903;28;20127;-74
2022/05/23 03:49:16;;;;;;;2.53;1.80;;;;;;;26.04;52.82;98239.78;5068612;28;20067;-74
2022/05/23 03:51:41;;;;;;;2.53;1.85;;;;;;;26.05;53.16;98242.13;5068709;28;20079;-74
2022/05/23 03:54:07;;;;;;;2.53;1.80;;;;;;;26.06;52.88;98248.53;5068664;28;20090;-74
2022/05/23 03:56:33;;;;;;;1.98;1.45;;;;;;;26.03;52.88;98252.22;5050766;28;20415;-74
2022/05/23 03:58:58;;;;;;;2.58;1.80;;;;;;;26.03;52.93;98247.41;5068540;28;20243;-74
2022/05/23 04:01:25;;;;;;;2.30;1.80;;;;;;;26.00;52.86;98248.28;5069028;28;20090;-74
2022/05/23 04:03:51;;;;;;;3.10;1.92;;;;;;;26.02;53.03;98245.03;5068835;28;20056;-74
2022/05/23 04:06:17;;;;;;;2.40;1.70;;;;;;;26.03;53.07;98246.63;5068734;28;20041;-73
2022/05/23 04:08:42;;;;;;;3.03;1.88;;;;;;;26.02;52.98;98247.84;5068532;28;20052;-73
2022/05/23 04:11:08;;;;;;;2.50;1.83;;;;;;;26.01;52.84;98244.25;5071992;28;20404;-74
2022/05/23 04:13:33;;;;;;;2.42;1.70;;;;;;;26.02;52.81;98245.03;5072031;28;20052;-74
2022/05/23 04:15:59;;;;;;;2.10;1.70;;;;;;;26.01;52.99;98246.28;5072166;28;20048;-74
2022/05/23 04:18:24;;;;;;;2.30;1.73;;;;;;;25.99;53.00;98246.69;5071581;28;20040;-73
2022/05/23 04:20:50;;;;;;;2.95;1.90;;;;;;;25.99;53.09;98243.09;5060695;28;20056;-74
2022/05/23 04:23:15;;;;;;;2.58;1.90;;;;;;;25.99;53.03;98243.09;5052012;28;20079;-73
2022/05/23 04:25:43;;;;;;;2.40;1.70;;;;;;;25.99;53.13;98243.09;5051999;28;20416;-73
2022/05/23 04:28:10;;;;;;;2.40;1.70;;;;;;;26.00;53.36;98245.47;5051948;28;20045;-73
2022/05/23 04:30:35;;;;;;;2.40;1.88;;;;;;;25.97;53.28;98246.34;5051483;28;20071;-74
2022/05/23 04:35:45;;;;;;;2.75;1.90;;;;;;;25.97;53.19;98257.56;5051908;28;20531;-74
2022/05/23 04:38:11;;;;;;;2.50;1.85;;;;;;;25.97;53.06;98246.34;5051374;28;20500;-74
2022/05/23 04:40:38;;;;;;;2.33;1.60;;;;;;;25.96;53.53;98239.16;5051431;28;20037;-74
2022/05/23 04:43:04;;;;;;;2.67;1.83;;;;;;;25.95;53.50;98237.59;5051472;28;20401;-73
2022/05/23 04:45:30;;;;;;;2.10;1.67;;;;;;;25.94;53.22;98226.84;5051543;28;20500;-74
2022/05/23 04:50:40;;;;;;;2.60;1.80;;;;;;;25.95;53.65;98222.81;5051264;28;20043;-74
2022/05/23 04:53:06;;;;;;;2.35;1.60;;;;;;;25.98;53.28;98233.13;5051364;28;20045;-70
2022/05/23 04:55:33;;;;;;;2.50;1.70;;;;;;;25.96;53.32;98227.97;5051412;28;20057;-71
2022/05/23 04:57:59;;;;;;;2.38;1.92;;;;;;;25.97;53.24;98231.56;5033073;28;20501;-70
2022/05/23 05:00:26;;;;;;;2.47;1.83;;;;;;;25.96;53.38;98230.75;5053111;28;20072;-71
2022/05/23 05:02:52;;;;;;;2.55;1.90;;;;;;;25.98;53.44;98224.72;5057787;28;20053;-70
2022/05/23 05:05:18;;;;;;;2.67;1.90;;;;;;;26.00;53.38;98227.84;5057800;28;20033;-70
2022/05/23 05:07:44;;;;;;;2.33;1.73;;;;;;;25.99;53.64;98232.69;5057995;28;20055;-70
2022/05/23 05:10:10;;;;;;;2.58;1.80;;;;;;;25.98;53.50;98224.72;5050846;28;20057;-70
2022/05/23 05:12:36;;;;;;;2.40;1.80;;;;;;;25.99;53.38;98232.69;5033116;28;20072;-70
2022/05/23 05:15:02;;;;;;;2.88;2.08;;;;;;;25.96;53.49;98229.97;5050994;28;20083;-70
2022/05/23 05:17:28;;;;;;;2.17;1.70;;;;;;;25.96;53.58;98227.97;5032720;28;20049;-73
2022/05/23 05:19:54;;;;;;;2.05;1.52;;;;;;;25.96;53.72;98232.78;5050676;28;20049;-70
2022/05/23 05:22:20;;;;;;;2.60;2.10;;;;;;;25.95;53.46;98236.81;5050080;28;20041;-70
2022/05/23 05:24:45;;;;;;;3.67;1.80;;;;;;;25.96;53.62;98252.41;5050882;28;20090;-70
2022/05/23 05:27:11;;;;;;;2.92;1.90;;;;;;;25.94;53.88;98241.63;5033088;28;20053;-70
2022/05/23 05:29:37;;;;;;;2.80;2.20;;;;;;;25.95;53.84;98236.81;5050661;28;20040;-71
2022/05/23 05:32:32;;;;;;;2.60;1.98;;;;;;;25.94;53.69;98241.63;5032816;28;20052;-70
2022/05/23 05:35:04;;;;;;;2.70;2.10;;;;;;;25.95;53.69;98242.41;5050763;28;20102;-70
2022/05/23 05:37:39;;;;;;;2.40;1.80;;;;;;;25.95;53.58;98251.59;5050464;28;20517;-70
2022/05/23 05:40:06;;;;;;;2.40;1.90;;;;;;;25.96;53.56;98250.38;5032640;28;20049;-70
2022/05/23 05:42:39;;;;;;;2.70;1.90;;;;;;;25.96;53.82;98258.00;5050437;28;20045;-70
2022/05/23 05:45:10;;;;;;;2.40;1.70;;;;;;;25.95;53.80;98260.00;5050494;28;20037;-70
2022/05/23 05:47:38;;;;;;;2.53;1.92;;;;;;;25.98;53.79;98255.53;5050657;28;20041;-70
2022/05/23 05:50:09;;;;;;;6.35;2.03;;;;;;;25.95;54.40;98260.00;5050155;28;20076;-74
2022/05/23 05:52:35;;;;;;;22.98;2.65;;;;;;;25.96;54.18;98255.19;5050467;28;20099;-71
2022/05/23 05:55:04;;;;;;;29.55;3.00;;;;;;;25.97;54.23;98259.56;5050386;28;20094;-70
2022/05/23 05:57:30;;;;;;;28.92;3.13;;;;;;;25.97;54.19;98265.97;5050094;28;20041;-70
2022/05/23 05:59:56;;;;;;;28.15;2.92;;;;;;;25.97;54.39;98259.56;5049996;28;20053;-70
2022/05/23 06:02:21;;;;;;;28.58;2.53;;;;;;;25.98;54.37;98256.31;5050286;28;20382;-70
2022/05/23 06:04:47;;;;;;;13.50;2.45;;;;;;;26.05;54.18;98256.16;5050295;28;20045;-70
2022/05/23 06:12:51;;;;;;;13.85;2.70;;;;;;;26.24;53.41;98257.28;5050032;28;20436;-70
2022/05/23 06:15:16;;;;;;;18.88;2.33;;;;;;;26.22;53.76;98248.53;5050143;28;20477;-70
2022/05/23 06:17:43;;;;;;;9.82;2.00;;;;;;;26.25;53.84;98258.06;5049645;28;20134;-70
2022/05/23 06:20:14;;;;;;;10.85;2.05;;;;;;;26.23;53.71;98257.72;5049416;28;20040;-70
2022/05/23 06:22:39;;;;;;;14.23;2.50;;;;;;;26.17;53.80;98231.44;5049998;28;20045;-70
2022/05/23 06:25:06;;;;;;;5.65;2.10;;;;;;;26.16;53.87;98233.47;5050206;28;20045;-70
2022/05/23 06:27:32;;;;;;;8.15;2.00;;;;;;;26.18;53.63;98255.44;5049892;28;20045;-70
2022/05/23 06:29:57;;;;;;;7.75;2.00;;;;;;;26.17;53.56;98249.06;5049482;28;20052;-70
2022/05/23 06:32:24;;;;;;;11.35;2.30;;;;;;;26.23;53.46;98243.72;5049334;28;20049;-70
2022/05/23 06:34:50;;;;;;;6.25;1.95;;;;;;;26.24;53.56;98237.66;5049706;28;20126;-71
2022/05/23 06:37:16;;;;;;;5.70;2.33;;;;;;;26.20;53.74;98228.53;5049796;28;20412;-70
2022/05/23 06:39:41;;;;;;;9.45;1.73;;;;;;;26.20;53.57;98211.72;5049004;28;20523;-70
2022/05/23 06:42:07;;;;;;;6.70;1.90;;;;;;;26.24;53.51;98214.44;5049729;28;20052;-77
2022/05/23 06:44:33;;;;;;;3.53;1.90;;;;;;;26.25;53.45;98208.41;5056052;28;20092;-71
2022/05/23 06:46:59;;;;;;;2.53;1.75;;;;;;;26.22;53.78;98214.91;5025740;28;20535;-70
2022/05/23 06:49:25;;;;;;;6.05;1.73;;;;;;;26.22;53.95;98202.88;5049191;28;20052;-70
2022/05/23 06:51:52;;;;;;;3.97;1.60;;;;;;;26.21;54.01;98192.88;5049052;28;20048;-70
2022/05/23 06:54:19;;;;;;;2.70;1.58;;;;;;;26.20;54.13;98189.31;5057691;28;20059;-74
2022/05/23 06:56:45;;;;;;;7.97;2.92;;;;;;;26.27;54.17;98180.69;5037222;28;20505;-73
2022/05/23 06:59:12;;;;;;;11.07;3.85;;;;;;;26.26;54.05;98179.13;5065438;28;20309;-73
2022/05/23 07:01:38;;;;;;;9.93;4.03;;;;;;;26.30;54.03;98159.44;5069054;28;20048;-73
2022/05/23 07:04:04;;;;;;;10.48;4.53;;;;;;;26.31;54.02;98158.19;5060940;28;20408;-73
2022/05/23 07:14:42;;;;;;;11.85;4.07;;;;;;;26.22;53.69;98189.66;5058840;28;20092;-73
2022/05/23 07:17:07;;;;;;;8.65;3.60;;;;;;;26.28;53.40;98176.66;5061720;28;20057;-72
2022/05/23 07:19:36;;;;;;;10.02;3.70;;;;;;;26.25;53.51;98171.16;5067852;28;20515;-72
2022/05/23 07:22:02;;;;;;;10.55;3.80;;;;;;;26.19;53.73;98178.53;5043319;28;20099;-74
2022/05/23 07:24:31;;;;;;;9.10;3.80;;;;;;;26.28;53.53;98182.28;5063421;28;20421;-72
2022/05/23 07:26:57;;;;;;;11.45;3.97;;;;;;;26.32;52.86;98179.38;5047453;28;20048;-73
2022/05/23 07:29:22;;;;;;;8.30;5.40;;;;;;;26.30;52.97;98181.84;5039206;28;20045;-73
2022/05/23 07:31:49;;;;;;;9.60;5.20;;;;;;;26.28;53.36;98187.88;5047700;28;20048;-74
2022/05/23 07:34:14;;;;;;;8.18;4.43;;;;;;;26.28;53.30;98181.47;5047645;28;20530;-74
2022/05/23 07:36:40;;;;;;;14.32;5.10;;;;;;;26.29;53.31;98188.66;5040161;28;20591;-74
2022/05/23 07:39:08;;;;;;;12.45;4.75;;;;;;;26.25;53.62;98183.16;5063704;28;20486;-73
2022/05/23 07:41:34;;;;;;;8.70;4.25;;;;;;;26.25;53.25;98183.16;5054452;28;20033;-75
2022/05/23 07:44:00;;;;;;;13.52;4.07;;;;;;;26.22;53.29;98186.88;5066819;28;20071;-71
2022/05/23 07:46:26;;;;;;;8.98;3.72;;;;;;;26.15;53.81;98184.25;5065600;28;20077;-74
2022/05/23 07:48:51;;;;;;;10.13;4.55;;;;;;;26.17;53.77;98186.59;5063738;28;20079;-74
2022/05/23 07:51:20;;;;;;;7.50;3.85;;;;;;;26.21;53.69;98190.09;5063786;28;20036;-71
2022/05/23 08:01:59;;;;;;;9.80;3.47;;;;;;;26.34;53.13;98174.91;5060366;28;20063;-71
2022/05/23 08:04:25;;;;;;;9.18;3.75;;;;;;;26.37;53.42;98167.63;5055298;28;20062;-71
2022/05/23 08:06:52;;;;;;;7.13;3.05;;;;;;;26.37;52.91;98156.44;5061772;28;20124;-71
2022/05/23 08:09:18;;;;;;;10.93;3.85;;;;;;;26.33;52.87;98145.28;5046977;28;20040;-71
2022/05/23 08:11:46;;;;;;;7.32;3.42;;;;;;;26.33;52.94;98145.28;5060790;28;20390;-71
2022/05/23 08:14:12;;;;;;;7.18;3.80;;;;;;;26.34;52.91;98138.44;5062655;28;20048;-70
2022/05/23 08:16:38;;;;;;;9.38;4.13;;;;;;;26.39;52.61;98147.56;5062048;28;20043;-71
2022/05/23 08:19:05;;;;;;;7.63;3.15;;;;;;;26.42;52.50;98135.47;5042522;28;20503;-71
2022/05/23 08:21:31;;;;;;;8.07;3.35;;;;;;;26.45;52.71;98117.78;5062576;28;20041;-71
2022/05/23 08:23:56;;;;;;;7.07;3.10;;;;;;;26.43;52.78;98109.00;5060230;28;20273;-73
2022/05/23 08:26:22;;;;;;;7.95;3.20;;;;;;;26.44;52.75;98096.59;5063367;28;20465;-73
2022/05/23 08:28:47;;;;;;;6.00;3.30;;;;;;;26.50;52.41;98094.78;5057519;28;20163;-72
2022/05/23 08:31:13;;;;;;;5.22;2.85;;;;;;;26.54;52.48;98109.50;5058557;28;20216;-63
2022/05/23 08:33:39;;;;;;;4.90;2.78;;;;;;;26.57;52.60;98092.53;5040569;28;20048;-63
2022/05/23 08:36:04;;;;;;;20.15;8.00;;;;;;;26.53;52.39;98088.31;5045923;28;20040;-63
2022/05/23 08:38:30;;;;;;;13.50;6.32;;;;;;;26.56;52.21;98082.56;5060433;28;20037;-63
2022/05/23 08:41:13;;;;;;;15.20;5.20;;;;;;;26.54;52.26;98101.09;5066676;28;20084;-62
2022/05/23 08:44:04;;;;;;;15.25;6.32;;;;;;;26.59;52.31;98106.16;5062778;28;20492;-62
2022/05/23 08:46:42;;;;;;;10.50;5.38;;;;;;;26.59;52.37;98118.16;5060315;28;20457;-73
2022/05/23 08:49:25;;;;;;;17.25;5.00;;;;;;;26.61;52.17;98093.25;5060976;28;20045;-73
2022/05/23 08:52:18;;;;;;;11.32;5.03;;;;;;;26.59;52.29;98087.31;5039490;28;20044;-73
2022/05/23 08:54:56;;;;;;;15.88;4.97;;;;;;;26.51;52.16;98077.53;5061294;28;20126;-68
2022/05/23 08:57:41;;;;;;;8.45;4.20;;;;;;;26.55;52.26;98069.00;5047647;28;20044;-68
2022/05/23 09:00:14;;;;;;;9.93;3.72;;;;;;;26.55;51.74;98066.97;5061013;28;20044;-68
2022/05/23 09:02:42;;;;;;;;;;;;;;;26.64;51.85;98062.72;5058325;28;20095;-68
2022/05/23 09:05:16;;;;;;;8.02;3.90;;;;;;;26.63;51.34;98053.53;5059492;28;19917;-69
2022/05/23 09:07:47;;;;;;;5.35;3.20;;;;;;;26.69;51.13;98059.38;5044730;28;20044;-70
2022/05/23 09:10:38;;;;;;;7.25;3.15;;;;;;;26.63;51.04;98035.91;5064506;28;20064;-69
2022/05/23 09:13:07;;;;;;;6.32;2.80;;;;;;;26.62;50.97;98032.31;5055474;28;20054;-69
2022/05/23 09:15:33;;;;;;;4.63;2.67;;;;;;;26.64;50.79;98032.66;5054516;28;20151;-69
2022/05/23 09:18:06;;;;;;;4.50;2.70;;;;;;;26.72;50.71;98020.00;5060917;28;20048;-69
2022/05/23 09:20:49;;;;;;;4.70;2.70;;;;;;;26.66;50.89;98021.78;5045719;28;20083;-69
2022/05/23 09:23:43;;;;;;;4.53;2.90;;;;;;;26.61;50.52;98022.34;5063585;28;20398;-69
2022/05/23 09:26:16;;;;;;;4.15;2.38;;;;;;;26.60;50.53;98027.16;5058360;28;20433;-69
2022/05/23 09:28:42;;;;;;;4.97;2.30;;;;;;;26.69;50.22;98037.72;5058312;28;20040;-69
2022/05/23 09:31:16;;;;;;;4.13;2.22;;;;;;;26.68;50.05;98046.59;5055719;28;20106;-70
2022/05/23 09:33:45;;;;;;;3.72;2.15;;;;;;;26.64;49.96;98038.25;5060325;28;20047;-68
2022/05/23 09:36:20;;;;;;;3.75;2.05;;;;;;;26.64;50.14;98023.44;5060626;28;20044;-69
2022/05/23 09:38:55;;;;;;;4.55;2.08;;;;;;;26.67;49.66;98014.16;5061672;28;20040;-68
2022/05/23 09:49:49;;;;;;;2.88;1.80;;;;;;;26.74;49.98;98025.94;5064736;28;20051;-62
2022/05/23 09:52:25;;;;;;;2.35;1.77;;;;;;;26.76;49.72;98025.50;5061949;28;20044;-62
2022/05/23 09:54:58;;;;;;;3.25;1.80;;;;;;;26.78;49.26;98023.78;5042606;28;20151;-63
2022/05/23 09:57:24;;;;;;;3.58;2.10;;;;;;;26.77;49.11;98033.44;5053036;28;20049;-63
2022/05/23 10:00:03;;;;;;;2.53;1.80;;;;;;;26.76;49.19;98015.03;5056987;28;20045;-62
2022/05/23 10:02:28;;;;;;;4.50;1.80;;;;;;;26.80;48.85;98014.94;5052777;28;20041;-63
2022/05/23 10:04:54;;;;;;;3.53;1.95;;;;;;;26.79;48.80;98007.75;5054055;28;20714;-63
2022/05/23 10:07:29;;;;;;;3.03;1.70;;;;;;;26.65;49.26;97986.56;5068593;28;20036;-62
2022/05/23 10:10:01;;;;;;;4.90;1.77;;;;;;;26.72;49.06;97993.94;5055953;28;20055;-63
2022/05/23 10:12:26;;;;;;;2.30;1.60;;;;;;;26.79;48.68;97990.91;5055856;28;20049;-63
2022/05/23 10:15:04;;;;;;;7.10;2.00;;;;;;;26.79;48.94;97982.50;5042656;28;20839;-63
2022/05/23 10:17:35;;;;;;;3.90;1.67;;;;;;;26.79;48.71;97963.66;5064878;28;20122;-65
2022/05/23 10:20:23;;;;;;;5.13;2.05;;;;;;;26.71;47.24;97961.53;5059986;28;20049;-64
2022/05/23 10:23:04;;;;;;;3.15;1.60;;;;;;;26.35;49.51;97959.81;5060339;28;20036;-63
2022/05/23 10:25:40;;;;;;;4.63;1.90;;;;;;;26.43;49.89;97949.19;5050820;28;20055;-63
2022/05/23 10:28:14;;;;;;;3.58;1.83;;;;;;;26.52;49.77;97947.31;5048864;28;20037;-63
2022/05/23 10:30:43;;;;;;;6.18;1.75;;;;;;;26.54;49.22;97935.63;5058285;28;20497;-64
2022/05/23 10:33:11;;;;;;;2.67;1.60;;;;;;;26.58;48.84;97916.69;5067611;28;20140;-63
2022/05/23 10:35:56;;;;;;;4.18;1.50;;;;;;;26.62;48.17;97903.31;5063071;28;20040;-64
2022/05/23 10:44:33;;;;;;;2.72;1.50;;;;;;;26.72;47.09;97907.81;5062693;28;20064;-70
2022/05/23 10:47:22;;;;;;;2.55;1.63;;;;;;;26.74;46.85;97908.13;5048491;28;20045;-69
2022/05/23 10:50:01;;;;;;;3.55;1.52;;;;;;;26.78;46.73;97908.78;5037011;28;20079;-69
2022/05/23 10:52:46;;;;;;;2.35;1.38;;;;;;;26.80;46.58;97913.97;5064836;28;20072;-69
2022/05/23 10:55:20;;;;;;;2.40;1.60;;;;;;;26.80;46.57;97897.91;5060211;28;20048;-69
2022/05/23 10:58:08;;;;;;;2.83;1.60;;;;;;;26.83;46.41;97893.41;5053323;28;20059;-69
2022/05/23 11:00:52;;;;;;;2.25;1.30;;;;;;;26.83;45.99;97897.00;5049161;28;20087;-69
2022/05/23 11:03:48;;;;;;;3.40;1.40;;;;;;;26.79;45.61;97881.50;5058630;28;20045;-69
2022/05/23 11:06:23;;;;;;;2.45;1.30;;;;;;;26.76;45.49;97880.41;5053900;28;20037;-63
2022/05/23 11:09:13;;;;;;;3.75;1.40;;;;;;;26.83;45.33;97879.38;5049109;28;20128;-63
2022/05/23 11:11:51;;;;;;;2.17;1.20;;;;;;;26.81;44.95;97881.84;5049213;28;20048;-63
2022/05/23 11:14:19;;;;;;;2.10;1.30;;;;;;;26.87;44.76;97889.25;5050457;28;20044;-63
2022/05/23 11:16:58;;;;;;;2.53;1.40;;;;;;;26.85;44.85;97871.28;5060875;28;20051;-63
2022/05/23 11:19:35;;;;;;;2.10;1.17;;;;;;;26.81;44.79;97877.03;5059735;28;20451;-63
2022/05/23 11:22:20;;;;;;;2.63;1.25;;;;;;;26.82;44.94;97872.97;5069156;28;20048;-63
2022/05/23 11:25:00;;;;;;;1.98;1.13;;;;;;;26.78;45.14;97861.09;5063355;28;20039;-64
2022/05/23 11:36:06;;;;;;;2.60;1.10;;;;;;;26.83;44.34;97868.16;5062023;28;20060;-69
2022/05/23 11:38:32;;;;;;;2.13;1.17;;;;;;;26.82;44.45;97861.75;5061481;28;20101;-68
2022/05/23 11:41:06;;;;;;;1.75;1.20;;;;;;;26.83;44.29;97859.72;5063951;28;20083;-67
2022/05/23 11:43:32;;;;;;;2.40;1.10;;;;;;;26.83;44.00;97845.72;5064191;28;20531;-70
2022/05/23 11:46:04;;;;;;;1.80;1.10;;;;;;;26.89;43.41;97849.50;5055759;28;20374;-69
2022/05/23 11:48:41;;;;;;;1.73;1.17;;;;;;;26.86;43.96;97836.38;5060426;28;20534;-69
2022/05/23 11:51:36;;;;;;;2.28;1.10;;;;;;;26.83;43.41;97846.50;5056276;28;20047;-69
2022/05/23 11:54:08;;;;;;;2.03;1.23;;;;;;;26.86;43.49;97848.41;5049732;28;20517;-68
2022/05/23 11:56:42;;;;;;;1.77;1.30;;;;;;;26.84;43.24;97836.84;5064179;28;20044;-69
2022/05/23 11:59:12;;;;;;;1.60;1.10;;;;;;;26.82;43.26;97844.94;5058378;28;20531;-69
2022/05/23 12:01:38;;;;;;;1.88;1.20;;;;;;;26.82;42.90;97833.72;5039673;28;20029;-67
2022/05/23 12:04:04;;;;;;;2.67;1.10;;;;;;;26.83;42.37;97846.50;5062843;28;20055;-69
2022/05/23 12:06:29;;;;;;;1.92;1.10;;;;;;;26.85;42.60;97855.22;5057384;28;20040;-67
2022/05/23 12:09:01;;;;;;;2.00;1.20;;;;;;;26.83;42.83;97848.50;5062812;28;20409;-71
2022/05/23 12:11:52;;;;;;;2.05;1.30;;;;;;;26.77;42.87;97853.13;5055310;28;20085;-72
2022/05/23 12:14:43;;;;;;;1.83;1.00;;;;;;;26.82;43.04;97838.53;5058513;28;20058;-66
2022/05/23 12:17:12;;;;;;;2.78;1.20;;;;;;;26.79;43.19;97848.66;5056890;28;20044;-60
2022/05/23 12:19:41;;;;;;;2.63;1.48;;;;;;;26.82;43.36;97825.28;5053141;28;20049;-62
2022/05/23 12:22:24;;;;;;;2.28;1.25;;;;;;;26.74;43.56;97837.22;5064684;28;20041;-61
2022/05/23 12:25:07;;;;;;;1.80;1.13;;;;;;;26.71;43.63;97824.88;5064902;28;20516;-62
2022/05/23 12:27:38;;;;;;;2.75;1.40;;;;;;;26.72;43.64;97843.28;5056349;28;20057;-63
2022/05/23 12:30:28;;;;;;;1.58;1.10;;;;;;;26.63;43.05;97848.00;5056640;28;20056;-62
2022/05/23 12:33:08;;;;;;;1.60;1.10;;;;;;;26.45;44.48;97832.56;5058796;28;20526;-68
2022/05/23 12:35:36;;;;;;;1.80;1.20;;;;;;;26.46;44.70;97842.53;5065228;28;20036;-68
2022/05/23 12:38:05;;;;;;;1.65;0.95;;;;;;;26.56;44.33;97832.19;5059521;28;20044;-69
2022/05/23 12:40:53;;;;;;;3.35;1.25;;;;;;;26.59;44.23;97843.31;5063430;28;20155;-69
2022/05/23 12:43:32;;;;;;;2.08;1.20;;;;;;;26.70;43.79;97826.09;5064453;28;20043;-67
2022/05/23 12:46:19;;;;;;;2.08;1.13;;;;;;;26.72;43.90;97806.00;5061755;28;20044;-68
2022/05/23 12:49:04;;;;;;;1.98;1.10;;;;;;;26.74;43.12;97831.59;5065187;28;20059;-69
2022/05/23 12:55:21;;;;;;;2.03;1.20;;;;;;;26.39;45.64;97856.81;5061142;28;20641;-67